sensor_id;sensor_type;location;lat;lon;timestamp;P1;durP1;ratioP1;P2;durP2;ratioP2
70150;SDS011;57517;43.562;19.540;2023-05-10T00:00:13;7.70;;;5.97;;
70150;SDS011;57517;43.562;19.540;2023-05-10T00:02:39;9.85;;;5.63;;
70150;SDS011;57517;43.562;19.540;2023-05-10T00:05:05;6.97;;;5.32;;
70150;SDS011;57517;43.562;19.540;2023-05-10T00:07:31;6.80;;;5.30;;
70150;SDS011;57517;43.562;19.540;2023-05-10T00:09:57;7.43;;;5.13;;
70150;SDS011;57517;43.562;19.540;2023-05-10T00:12:23;8.75;;;5.32;;
70150;SDS011;57517;43.562;19.540;2023-05-10T00:14:49;7.70;;;5.40;;
70150;SDS011;57517;43.562;19.540;2023-05-10T00:17:15;9.05;;;6.18;;
70150;SDS011;57517;43.562;19.540;2023-05-10T00:19:41;8.55;;;5.88;;
70150;SDS011;57517;43.562;19.540;2023-05-10T00:22:06;7.53;;;5.60;;
70150;SDS011;57517;43.562;19.540;2023-05-10T00:24:32;7.45;;;5.75;;
70150;SDS011;57517;43.562;19.540;2023-05-10T00:26:58;7.03;;;5.07;;
70150;SDS011;57517;43.562;19.540;2023-05-10T00:29:24;6.72;;;4.75;;
70150;SDS011;57517;43.562;19.540;2023-05-10T00:31:49;8.05;;;5.00;;
70150;SDS011;57517;43.562;19.540;2023-05-10T00:34:15;8.82;;;5.20;;
70150;SDS011;57517;43.562;19.540;2023-05-10T00:36:41;5.90;;;4.38;;
70150;SDS011;57517;43.562;19.540;2023-05-10T00:39:07;6.55;;;4.32;;
70150;SDS011;57517;43.562;19.540;2023-05-10T00:41:32;6.20;;;4.93;;
70150;SDS011;57517;43.562;19.540;2023-05-10T00:43:58;6.50;;;4.75;;
70150;SDS011;57517;43.562;19.540;2023-05-10T00:46:24;6.40;;;4.45;;
70150;SDS011;57517;43.562;19.540;2023-05-10T00:48:50;6.65;;;4.60;;
70150;SDS011;57517;43.562;19.540;2023-05-10T00:51:17;8.25;;;4.80;;
70150;SDS011;57517;43.562;19.540;2023-05-10T00:53:43;7.38;;;4.55;;
70150;SDS011;57517;43.562;19.540;2023-05-10T00:56:11;6.57;;;4.60;;
70150;SDS011;57517;43.562;19.540;2023-05-10T00:58:37;5.55;;;4.10;;
70150;SDS011;57517;43.562;19.540;2023-05-10T01:01:04;6.07;;;4.63;;
70150;SDS011;57517;43.562;19.540;2023-05-10T01:03:31;6.22;;;4.93;;
70150;SDS011;57517;43.562;19.540;2023-05-10T01:05:57;7.32;;;5.25;;
70150;SDS011;57517;43.562;19.540;2023-05-10T01:08:23;7.13;;;4.80;;
70150;SDS011;57517;43.562;19.540;2023-05-10T01:10:50;7.38;;;5.22;;
70150;SDS011;57517;43.562;19.540;2023-05-10T01:13:18;6.03;;;4.63;;
70150;SDS011;57517;43.562;19.540;2023-05-10T01:15:57;7.07;;;5.15;;
70150;SDS011;57517;43.562;19.540;2023-05-10T01:18:24;8.95;;;5.82;;
70150;SDS011;57517;43.562;19.540;2023-05-10T01:20:55;6.72;;;5.28;;
70150;SDS011;57517;43.562;19.540;2023-05-10T01:24:08;7.05;;;5.43;;
70150;SDS011;57517;43.562;19.540;2023-05-10T01:29:16;6.68;;;5.22;;
70150;SDS011;57517;43.562;19.540;2023-05-10T01:34:35;8.45;;;5.75;;
70150;SDS011;57517;43.562;19.540;2023-05-10T01:37:13;6.75;;;5.32;;
70150;SDS011;57517;43.562;19.540;2023-05-10T01:39:46;8.13;;;6.05;;
70150;SDS011;57517;43.562;19.540;2023-05-10T01:42:24;8.02;;;5.97;;
70150;SDS011;57517;43.562;19.540;2023-05-10T01:47:43;6.97;;;5.20;;
70150;SDS011;57517;43.562;19.540;2023-05-10T01:50:18;10.73;;;5.43;;
70150;SDS011;57517;43.562;19.540;2023-05-10T01:52:50;7.50;;;5.25;;
70150;SDS011;57517;43.562;19.540;2023-05-10T01:55:20;7.35;;;5.10;;
70150;SDS011;57517;43.562;19.540;2023-05-10T01:57:51;7.45;;;5.22;;
70150;SDS011;57517;43.562;19.540;2023-05-10T02:00:23;7.80;;;5.40;;
70150;SDS011;57517;43.562;19.540;2023-05-10T02:02:52;8.07;;;5.50;;
70150;SDS011;57517;43.562;19.540;2023-05-10T02:05:19;7.13;;;5.53;;
70150;SDS011;57517;43.562;19.540;2023-05-10T02:07:46;6.95;;;5.13;;
70150;SDS011;57517;43.562;19.540;2023-05-10T02:10:13;7.60;;;5.45;;
70150;SDS011;57517;43.562;19.540;2023-05-10T02:12:41;8.00;;;6.00;;
70150;SDS011;57517;43.562;19.540;2023-05-10T02:15:10;7.38;;;5.43;;
70150;SDS011;57517;43.562;19.540;2023-05-10T02:17:37;8.57;;;5.05;;
70150;SDS011;57517;43.562;19.540;2023-05-10T02:20:05;6.53;;;5.30;;
70150;SDS011;57517;43.562;19.540;2023-05-10T02:22:35;6.38;;;5.22;;
70150;SDS011;57517;43.562;19.540;2023-05-10T02:25:01;6.82;;;5.18;;
70150;SDS011;57517;43.562;19.540;2023-05-10T02:27:29;6.50;;;5.15;;
70150;SDS011;57517;43.562;19.540;2023-05-10T02:29:55;5.85;;;4.78;;
70150;SDS011;57517;43.562;19.540;2023-05-10T02:32:22;7.60;;;4.63;;
70150;SDS011;57517;43.562;19.540;2023-05-10T02:34:51;6.13;;;4.93;;
70150;SDS011;57517;43.562;19.540;2023-05-10T02:37:20;8.35;;;5.95;;
70150;SDS011;57517;43.562;19.540;2023-05-10T02:39:47;7.95;;;5.80;;
70150;SDS011;57517;43.562;19.540;2023-05-10T02:42:18;8.02;;;5.97;;
70150;SDS011;57517;43.562;19.540;2023-05-10T02:44:48;9.13;;;5.88;;
70150;SDS011;57517;43.562;19.540;2023-05-10T02:47:16;7.05;;;5.65;;
70150;SDS011;57517;43.562;19.540;2023-05-10T02:49:43;6.78;;;5.57;;
70150;SDS011;57517;43.562;19.540;2023-05-10T02:52:09;7.78;;;6.20;;
70150;SDS011;57517;43.562;19.540;2023-05-10T02:54:41;7.65;;;6.05;;
70150;SDS011;57517;43.562;19.540;2023-05-10T02:57:15;8.13;;;5.55;;
70150;SDS011;57517;43.562;19.540;2023-05-10T02:59:45;9.55;;;6.30;;
70150;SDS011;57517;43.562;19.540;2023-05-10T03:02:14;8.20;;;6.15;;
70150;SDS011;57517;43.562;19.540;2023-05-10T03:04:40;7.15;;;5.90;;
70150;SDS011;57517;43.562;19.540;2023-05-10T03:07:05;8.48;;;5.97;;
70150;SDS011;57517;43.562;19.540;2023-05-10T03:09:32;8.05;;;6.05;;
70150;SDS011;57517;43.562;19.540;2023-05-10T03:17:34;7.70;;;6.32;;
70150;SDS011;57517;43.562;19.540;2023-05-10T03:20:08;8.32;;;6.40;;
70150;SDS011;57517;43.562;19.540;2023-05-10T03:22:47;7.30;;;5.88;;
70150;SDS011;57517;43.562;19.540;2023-05-10T03:25:16;9.70;;;6.50;;
70150;SDS011;57517;43.562;19.540;2023-05-10T03:27:43;8.20;;;6.00;;
70150;SDS011;57517;43.562;19.540;2023-05-10T03:30:10;8.00;;;6.20;;
70150;SDS011;57517;43.562;19.540;2023-05-10T03:32:37;9.25;;;6.05;;
70150;SDS011;57517;43.562;19.540;2023-05-10T03:35:07;9.38;;;6.32;;
70150;SDS011;57517;43.562;19.540;2023-05-10T03:37:38;9.10;;;6.35;;
70150;SDS011;57517;43.562;19.540;2023-05-10T03:40:04;9.30;;;6.57;;
70150;SDS011;57517;43.562;19.540;2023-05-10T03:42:30;7.60;;;5.50;;
70150;SDS011;57517;43.562;19.540;2023-05-10T03:44:56;8.65;;;5.50;;
70150;SDS011;57517;43.562;19.540;2023-05-10T03:47:22;9.38;;;6.55;;
70150;SDS011;57517;43.562;19.540;2023-05-10T03:49:48;8.43;;;5.88;;
70150;SDS011;57517;43.562;19.540;2023-05-10T03:52:13;8.82;;;6.53;;
70150;SDS011;57517;43.562;19.540;2023-05-10T03:54:39;9.00;;;6.22;;
70150;SDS011;57517;43.562;19.540;2023-05-10T03:57:05;9.05;;;6.60;;
70150;SDS011;57517;43.562;19.540;2023-05-10T03:59:31;7.05;;;5.60;;
70150;SDS011;57517;43.562;19.540;2023-05-10T04:01:58;9.23;;;6.22;;
70150;SDS011;57517;43.562;19.540;2023-05-10T04:04:23;8.13;;;6.25;;
70150;SDS011;57517;43.562;19.540;2023-05-10T04:06:50;8.50;;;6.57;;
70150;SDS011;57517;43.562;19.540;2023-05-10T04:09:16;8.88;;;5.63;;
70150;SDS011;57517;43.562;19.540;2023-05-10T04:11:42;8.95;;;6.55;;
70150;SDS011;57517;43.562;19.540;2023-05-10T04:14:08;8.20;;;6.13;;
70150;SDS011;57517;43.562;19.540;2023-05-10T04:16:34;10.10;;;6.68;;
70150;SDS011;57517;43.562;19.540;2023-05-10T04:18:59;9.68;;;6.88;;
70150;SDS011;57517;43.562;19.540;2023-05-10T04:21:25;7.82;;;6.32;;
70150;SDS011;57517;43.562;19.540;2023-05-10T04:23:51;8.88;;;6.40;;
70150;SDS011;57517;43.562;19.540;2023-05-10T04:26:17;10.57;;;6.03;;
70150;SDS011;57517;43.562;19.540;2023-05-10T04:28:43;8.73;;;6.40;;
70150;SDS011;57517;43.562;19.540;2023-05-10T04:31:09;8.98;;;6.50;;
70150;SDS011;57517;43.562;19.540;2023-05-10T04:33:35;8.82;;;6.40;;
70150;SDS011;57517;43.562;19.540;2023-05-10T04:36:02;13.38;;;10.00;;
70150;SDS011;57517;43.562;19.540;2023-05-10T04:38:28;24.10;;;16.67;;
70150;SDS011;57517;43.562;19.540;2023-05-10T04:40:54;33.33;;;25.05;;
70150;SDS011;57517;43.562;19.540;2023-05-10T04:43:19;22.50;;;17.13;;
70150;SDS011;57517;43.562;19.540;2023-05-10T04:45:45;17.23;;;11.50;;
70150;SDS011;57517;43.562;19.540;2023-05-10T04:48:11;28.60;;;21.13;;
70150;SDS011;57517;43.562;19.540;2023-05-10T04:50:37;23.23;;;15.75;;
70150;SDS011;57517;43.562;19.540;2023-05-10T04:53:04;20.65;;;14.35;;
70150;SDS011;57517;43.562;19.540;2023-05-10T04:55:29;34.78;;;25.52;;
70150;SDS011;57517;43.562;19.540;2023-05-10T04:57:55;19.30;;;13.50;;
70150;SDS011;57517;43.562;19.540;2023-05-10T05:00:22;14.43;;;9.90;;
70150;SDS011;57517;43.562;19.540;2023-05-10T05:02:48;12.43;;;9.23;;
70150;SDS011;57517;43.562;19.540;2023-05-10T05:05:14;15.32;;;10.45;;
70150;SDS011;57517;43.562;19.540;2023-05-10T05:07:40;35.28;;;24.70;;
70150;SDS011;57517;43.562;19.540;2023-05-10T05:10:06;15.48;;;11.05;;
70150;SDS011;57517;43.562;19.540;2023-05-10T05:12:33;12.45;;;10.07;;
70150;SDS011;57517;43.562;19.540;2023-05-10T05:14:59;12.20;;;9.13;;
70150;SDS011;57517;43.562;19.540;2023-05-10T05:17:25;16.20;;;8.02;;
70150;SDS011;57517;43.562;19.540;2023-05-10T05:19:51;12.50;;;9.20;;
70150;SDS011;57517;43.562;19.540;2023-05-10T05:22:17;23.48;;;15.70;;
70150;SDS011;57517;43.562;19.540;2023-05-10T05:24:44;13.95;;;10.15;;
70150;SDS011;57517;43.562;19.540;2023-05-10T05:27:10;11.68;;;8.52;;
70150;SDS011;57517;43.562;19.540;2023-05-10T05:29:36;12.00;;;9.32;;
70150;SDS011;57517;43.562;19.540;2023-05-10T05:32:02;12.00;;;9.65;;
70150;SDS011;57517;43.562;19.540;2023-05-10T05:34:28;12.15;;;9.43;;
70150;SDS011;57517;43.562;19.540;2023-05-10T05:36:54;39.97;;;10.85;;
70150;SDS011;57517;43.562;19.540;2023-05-10T05:39:20;11.32;;;8.35;;
70150;SDS011;57517;43.562;19.540;2023-05-10T05:41:46;20.27;;;11.50;;
70150;SDS011;57517;43.562;19.540;2023-05-10T05:44:11;11.50;;;9.52;;
70150;SDS011;57517;43.562;19.540;2023-05-10T05:46:37;15.73;;;9.38;;
70150;SDS011;57517;43.562;19.540;2023-05-10T05:49:04;10.85;;;8.18;;
70150;SDS011;57517;43.562;19.540;2023-05-10T05:51:30;24.58;;;9.23;;
70150;SDS011;57517;43.562;19.540;2023-05-10T05:53:56;12.80;;;8.57;;
70150;SDS011;57517;43.562;19.540;2023-05-10T05:56:21;11.43;;;8.43;;
70150;SDS011;57517;43.562;19.540;2023-05-10T05:58:50;12.38;;;8.65;;
70150;SDS011;57517;43.562;19.540;2023-05-10T06:01:16;12.82;;;8.82;;
70150;SDS011;57517;43.562;19.540;2023-05-10T06:03:42;12.18;;;9.18;;
70150;SDS011;57517;43.562;19.540;2023-05-10T06:06:08;10.88;;;7.53;;
70150;SDS011;57517;43.562;19.540;2023-05-10T06:08:34;11.43;;;8.13;;
70150;SDS011;57517;43.562;19.540;2023-05-10T06:11:00;13.57;;;8.60;;
70150;SDS011;57517;43.562;19.540;2023-05-10T06:13:26;15.07;;;9.73;;
70150;SDS011;57517;43.562;19.540;2023-05-10T06:15:57;13.45;;;8.98;;
70150;SDS011;57517;43.562;19.540;2023-05-10T06:18:24;21.33;;;12.35;;
70150;SDS011;57517;43.562;19.540;2023-05-10T06:20:50;22.60;;;13.98;;
70150;SDS011;57517;43.562;19.540;2023-05-10T06:23:16;17.65;;;11.30;;
70150;SDS011;57517;43.562;19.540;2023-05-10T06:25:42;21.15;;;13.68;;
70150;SDS011;57517;43.562;19.540;2023-05-10T06:28:08;17.35;;;12.35;;
70150;SDS011;57517;43.562;19.540;2023-05-10T06:30:35;16.52;;;12.55;;
70150;SDS011;57517;43.562;19.540;2023-05-10T06:33:01;23.35;;;15.15;;
70150;SDS011;57517;43.562;19.540;2023-05-10T06:35:27;14.98;;;9.38;;
70150;SDS011;57517;43.562;19.540;2023-05-10T06:37:53;14.25;;;9.65;;
70150;SDS011;57517;43.562;19.540;2023-05-10T06:40:19;16.50;;;11.07;;
70150;SDS011;57517;43.562;19.540;2023-05-10T06:42:45;17.92;;;12.02;;
70150;SDS011;57517;43.562;19.540;2023-05-10T06:45:12;18.23;;;12.68;;
70150;SDS011;57517;43.562;19.540;2023-05-10T06:47:38;16.67;;;10.75;;
70150;SDS011;57517;43.562;19.540;2023-05-10T06:50:04;15.88;;;10.93;;
70150;SDS011;57517;43.562;19.540;2023-05-10T06:52:30;16.63;;;12.55;;
70150;SDS011;57517;43.562;19.540;2023-05-10T06:54:55;28.33;;;18.48;;
70150;SDS011;57517;43.562;19.540;2023-05-10T06:57:22;26.42;;;15.73;;
70150;SDS011;57517;43.562;19.540;2023-05-10T06:59:48;19.10;;;12.75;;
70150;SDS011;57517;43.562;19.540;2023-05-10T07:02:14;12.68;;;8.75;;
70150;SDS011;57517;43.562;19.540;2023-05-10T07:04:40;15.30;;;9.20;;
70150;SDS011;57517;43.562;19.540;2023-05-10T07:07:05;13.52;;;8.88;;
70150;SDS011;57517;43.562;19.540;2023-05-10T07:09:31;12.63;;;10.02;;
70150;SDS011;57517;43.562;19.540;2023-05-10T07:11:57;14.75;;;9.93;;
70150;SDS011;57517;43.562;19.540;2023-05-10T07:14:23;12.45;;;9.55;;
70150;SDS011;57517;43.562;19.540;2023-05-10T07:16:48;15.95;;;10.45;;
70150;SDS011;57517;43.562;19.540;2023-05-10T07:19:14;18.13;;;13.25;;
70150;SDS011;57517;43.562;19.540;2023-05-10T07:21:40;23.98;;;18.50;;
70150;SDS011;57517;43.562;19.540;2023-05-10T07:24:08;17.45;;;13.00;;
70150;SDS011;57517;43.562;19.540;2023-05-10T07:26:34;25.85;;;16.48;;
70150;SDS011;57517;43.562;19.540;2023-05-10T07:28:59;53.88;;;21.98;;
70150;SDS011;57517;43.562;19.540;2023-05-10T07:31:26;25.33;;;16.83;;
70150;SDS011;57517;43.562;19.540;2023-05-10T07:33:52;33.17;;;20.20;;
70150;SDS011;57517;43.562;19.540;2023-05-10T07:36:18;32.60;;;20.45;;
70150;SDS011;57517;43.562;19.540;2023-05-10T07:38:44;26.02;;;18.77;;
70150;SDS011;57517;43.562;19.540;2023-05-10T07:41:11;17.38;;;11.68;;
70150;SDS011;57517;43.562;19.540;2023-05-10T07:43:36;17.52;;;11.98;;
70150;SDS011;57517;43.562;19.540;2023-05-10T07:46:02;12.35;;;9.45;;
70150;SDS011;57517;43.562;19.540;2023-05-10T07:48:28;17.40;;;12.10;;
70150;SDS011;57517;43.562;19.540;2023-05-10T07:50:54;21.60;;;15.05;;
70150;SDS011;57517;43.562;19.540;2023-05-10T07:53:20;21.25;;;13.02;;
70150;SDS011;57517;43.562;19.540;2023-05-10T07:55:53;24.23;;;15.52;;
70150;SDS011;57517;43.562;19.540;2023-05-10T07:58:22;21.58;;;16.75;;
70150;SDS011;57517;43.562;19.540;2023-05-10T08:00:48;20.42;;;13.65;;
70150;SDS011;57517;43.562;19.540;2023-05-10T08:03:14;20.55;;;14.07;;
70150;SDS011;57517;43.562;19.540;2023-05-10T08:05:40;19.85;;;13.23;;
70150;SDS011;57517;43.562;19.540;2023-05-10T08:08:06;17.63;;;13.25;;
70150;SDS011;57517;43.562;19.540;2023-05-10T08:10:32;19.00;;;14.35;;
70150;SDS011;57517;43.562;19.540;2023-05-10T08:12:58;16.00;;;12.50;;
70150;SDS011;57517;43.562;19.540;2023-05-10T08:15:24;20.38;;;12.40;;
70150;SDS011;57517;43.562;19.540;2023-05-10T08:17:53;23.63;;;17.35;;
70150;SDS011;57517;43.562;19.540;2023-05-10T08:20:19;23.48;;;14.95;;
70150;SDS011;57517;43.562;19.540;2023-05-10T08:22:45;12.15;;;10.32;;
70150;SDS011;57517;43.562;19.540;2023-05-10T08:25:11;16.83;;;11.80;;
70150;SDS011;57517;43.562;19.540;2023-05-10T08:27:37;17.77;;;11.50;;
70150;SDS011;57517;43.562;19.540;2023-05-10T08:30:03;13.15;;;10.77;;
70150;SDS011;57517;43.562;19.540;2023-05-10T08:32:29;18.73;;;13.23;;
70150;SDS011;57517;43.562;19.540;2023-05-10T08:34:55;16.00;;;10.65;;
70150;SDS011;57517;43.562;19.540;2023-05-10T08:37:22;19.60;;;13.50;;
70150;SDS011;57517;43.562;19.540;2023-05-10T08:39:48;34.35;;;23.95;;
70150;SDS011;57517;43.562;19.540;2023-05-10T08:42:15;35.50;;;21.65;;
70150;SDS011;57517;43.562;19.540;2023-05-10T08:44:44;26.77;;;13.57;;
70150;SDS011;57517;43.562;19.540;2023-05-10T08:47:13;22.08;;;13.85;;
70150;SDS011;57517;43.562;19.540;2023-05-10T08:49:41;13.82;;;10.43;;
70150;SDS011;57517;43.562;19.540;2023-05-10T08:52:08;14.40;;;9.23;;
70150;SDS011;57517;43.562;19.540;2023-05-10T08:54:38;11.73;;;8.73;;
70150;SDS011;57517;43.562;19.540;2023-05-10T08:57:04;21.55;;;14.10;;
70150;SDS011;57517;43.562;19.540;2023-05-10T08:59:30;15.80;;;11.18;;
70150;SDS011;57517;43.562;19.540;2023-05-10T09:01:58;17.02;;;10.70;;
70150;SDS011;57517;43.562;19.540;2023-05-10T09:04:25;16.45;;;12.68;;
70150;SDS011;57517;43.562;19.540;2023-05-10T09:06:51;15.10;;;11.52;;
70150;SDS011;57517;43.562;19.540;2023-05-10T09:09:17;21.23;;;15.50;;
70150;SDS011;57517;43.562;19.540;2023-05-10T09:11:44;18.60;;;12.15;;
70150;SDS011;57517;43.562;19.540;2023-05-10T09:14:11;13.07;;;8.93;;
70150;SDS011;57517;43.562;19.540;2023-05-10T09:16:38;12.05;;;8.23;;
70150;SDS011;57517;43.562;19.540;2023-05-10T09:19:04;12.88;;;10.40;;
70150;SDS011;57517;43.562;19.540;2023-05-10T09:21:32;14.85;;;11.77;;
70150;SDS011;57517;43.562;19.540;2023-05-10T09:24:02;15.68;;;11.85;;
70150;SDS011;57517;43.562;19.540;2023-05-10T09:26:30;14.07;;;11.20;;
70150;SDS011;57517;43.562;19.540;2023-05-10T09:28:56;10.93;;;8.95;;
70150;SDS011;57517;43.562;19.540;2023-05-10T09:31:23;15.25;;;11.02;;
70150;SDS011;57517;43.562;19.540;2023-05-10T09:33:52;13.02;;;9.55;;
70150;SDS011;57517;43.562;19.540;2023-05-10T09:36:18;14.82;;;10.93;;
70150;SDS011;57517;43.562;19.540;2023-05-10T09:38:51;23.10;;;16.13;;
70150;SDS011;57517;43.562;19.540;2023-05-10T09:41:18;17.85;;;12.55;;
70150;SDS011;57517;43.562;19.540;2023-05-10T09:43:48;14.98;;;10.88;;
70150;SDS011;57517;43.562;19.540;2023-05-10T09:46:15;13.57;;;10.15;;
70150;SDS011;57517;43.562;19.540;2023-05-10T09:48:42;12.35;;;9.95;;
70150;SDS011;57517;43.562;19.540;2023-05-10T09:51:20;18.80;;;13.68;;
70150;SDS011;57517;43.562;19.540;2023-05-10T09:53:47;15.50;;;11.60;;
70150;SDS011;57517;43.562;19.540;2023-05-10T09:56:32;14.48;;;9.77;;
70150;SDS011;57517;43.562;19.540;2023-05-10T09:59:03;19.83;;;14.05;;
70150;SDS011;57517;43.562;19.540;2023-05-10T10:01:29;15.45;;;11.18;;
70150;SDS011;57517;43.562;19.540;2023-05-10T10:03:55;15.65;;;11.60;;
70150;SDS011;57517;43.562;19.540;2023-05-10T10:06:24;14.75;;;11.35;;
70150;SDS011;57517;43.562;19.540;2023-05-10T10:08:51;15.20;;;11.40;;
70150;SDS011;57517;43.562;19.540;2023-05-10T10:11:18;14.07;;;10.82;;
70150;SDS011;57517;43.562;19.540;2023-05-10T10:13:44;21.42;;;14.30;;
70150;SDS011;57517;43.562;19.540;2023-05-10T10:16:10;14.73;;;10.60;;
70150;SDS011;57517;43.562;19.540;2023-05-10T10:18:36;13.85;;;10.13;;
70150;SDS011;57517;43.562;19.540;2023-05-10T10:21:07;11.35;;;9.45;;
70150;SDS011;57517;43.562;19.540;2023-05-10T10:23:36;13.73;;;11.15;;
70150;SDS011;57517;43.562;19.540;2023-05-10T10:26:02;13.07;;;9.10;;
70150;SDS011;57517;43.562;19.540;2023-05-10T10:34:08;8.88;;;7.70;;
70150;SDS011;57517;43.562;19.540;2023-05-10T10:36:42;10.50;;;8.73;;
70150;SDS011;57517;43.562;19.540;2023-05-10T10:39:10;11.20;;;8.60;;
70150;SDS011;57517;43.562;19.540;2023-05-10T10:41:40;13.65;;;9.65;;
70150;SDS011;57517;43.562;19.540;2023-05-10T10:47:02;9.55;;;7.22;;
70150;SDS011;57517;43.562;19.540;2023-05-10T10:49:30;10.48;;;7.75;;
70150;SDS011;57517;43.562;19.540;2023-05-10T10:54:57;11.25;;;7.97;;
70150;SDS011;57517;43.562;19.540;2023-05-10T10:57:28;9.43;;;6.75;;
70150;SDS011;57517;43.562;19.540;2023-05-10T11:08:00;9.25;;;6.35;;
70150;SDS011;57517;43.562;19.540;2023-05-10T11:10:34;9.95;;;6.68;;
70150;SDS011;57517;43.562;19.540;2023-05-10T11:13:06;8.63;;;6.85;;
70150;SDS011;57517;43.562;19.540;2023-05-10T11:15:34;9.35;;;5.88;;
70150;SDS011;57517;43.562;19.540;2023-05-10T11:18:18;10.00;;;6.13;;
70150;SDS011;57517;43.562;19.540;2023-05-10T11:26:08;7.95;;;5.90;;
70150;SDS011;57517;43.562;19.540;2023-05-10T11:28:44;12.82;;;7.03;;
70150;SDS011;57517;43.562;19.540;2023-05-10T11:31:13;10.82;;;9.15;;
70150;SDS011;57517;43.562;19.540;2023-05-10T11:33:50;12.18;;;7.70;;
70150;SDS011;57517;43.562;19.540;2023-05-10T11:36:20;10.75;;;7.30;;
70150;SDS011;57517;43.562;19.540;2023-05-10T11:38:49;10.80;;;6.63;;
70150;SDS011;57517;43.562;19.540;2023-05-10T11:41:15;10.43;;;7.65;;
70150;SDS011;57517;43.562;19.540;2023-05-10T11:43:42;8.95;;;6.13;;
70150;SDS011;57517;43.562;19.540;2023-05-10T11:46:11;9.23;;;5.53;;
70150;SDS011;57517;43.562;19.540;2023-05-10T11:48:38;7.75;;;5.97;;
70150;SDS011;57517;43.562;19.540;2023-05-10T11:51:08;8.85;;;6.70;;
70150;SDS011;57517;43.562;19.540;2023-05-10T11:53:35;7.82;;;5.32;;
70150;SDS011;57517;43.562;19.540;2023-05-10T11:56:03;8.73;;;7.10;;
70150;SDS011;57517;43.562;19.540;2023-05-10T11:58:33;10.40;;;6.50;;
70150;SDS011;57517;43.562;19.540;2023-05-10T12:01:00;9.32;;;6.53;;
70150;SDS011;57517;43.562;19.540;2023-05-10T12:03:26;9.32;;;6.15;;
70150;SDS011;57517;43.562;19.540;2023-05-10T12:05:53;7.68;;;5.78;;
70150;SDS011;57517;43.562;19.540;2023-05-10T12:08:26;8.70;;;5.80;;
70150;SDS011;57517;43.562;19.540;2023-05-10T12:10:54;8.25;;;6.15;;
70150;SDS011;57517;43.562;19.540;2023-05-10T12:13:37;10.18;;;6.30;;
70150;SDS011;57517;43.562;19.540;2023-05-10T12:16:13;13.02;;;6.43;;
70150;SDS011;57517;43.562;19.540;2023-05-10T12:18:44;10.50;;;6.15;;
70150;SDS011;57517;43.562;19.540;2023-05-10T12:21:11;12.63;;;7.80;;
70150;SDS011;57517;43.562;19.540;2023-05-10T12:23:37;9.65;;;6.25;;
70150;SDS011;57517;43.562;19.540;2023-05-10T12:26:04;7.18;;;5.28;;
70150;SDS011;57517;43.562;19.540;2023-05-10T12:28:31;7.82;;;5.60;;
70150;SDS011;57517;43.562;19.540;2023-05-10T12:30:59;6.95;;;5.05;;
70150;SDS011;57517;43.562;19.540;2023-05-10T12:33:25;7.28;;;4.65;;
70150;SDS011;57517;43.562;19.540;2023-05-10T12:35:51;6.68;;;4.90;;
70150;SDS011;57517;43.562;19.540;2023-05-10T12:41:03;7.00;;;5.22;;
70150;SDS011;57517;43.562;19.540;2023-05-10T12:43:31;13.13;;;9.13;;
70150;SDS011;57517;43.562;19.540;2023-05-10T12:45:57;8.20;;;5.80;;
70150;SDS011;57517;43.562;19.540;2023-05-10T12:48:24;6.88;;;5.57;;
70150;SDS011;57517;43.562;19.540;2023-05-10T12:50:50;8.40;;;6.20;;
70150;SDS011;57517;43.562;19.540;2023-05-10T12:53:15;10.32;;;6.55;;
70150;SDS011;57517;43.562;19.540;2023-05-10T12:55:42;11.23;;;7.65;;
70150;SDS011;57517;43.562;19.540;2023-05-10T12:58:08;16.80;;;10.40;;
70150;SDS011;57517;43.562;19.540;2023-05-10T13:00:34;16.92;;;11.48;;
70150;SDS011;57517;43.562;19.540;2023-05-10T13:03:00;15.27;;;11.60;;
70150;SDS011;57517;43.562;19.540;2023-05-10T13:05:26;13.07;;;8.23;;
70150;SDS011;57517;43.562;19.540;2023-05-10T13:07:51;15.05;;;11.05;;
70150;SDS011;57517;43.562;19.540;2023-05-10T13:10:17;10.35;;;7.85;;
70150;SDS011;57517;43.562;19.540;2023-05-10T13:12:43;10.75;;;6.40;;
70150;SDS011;57517;43.562;19.540;2023-05-10T13:15:09;7.68;;;5.20;;
70150;SDS011;57517;43.562;19.540;2023-05-10T13:17:34;9.55;;;6.07;;
70150;SDS011;57517;43.562;19.540;2023-05-10T13:20:00;7.10;;;5.20;;
70150;SDS011;57517;43.562;19.540;2023-05-10T13:22:26;7.78;;;5.57;;
70150;SDS011;57517;43.562;19.540;2023-05-10T13:24:52;6.97;;;4.82;;
70150;SDS011;57517;43.562;19.540;2023-05-10T13:27:17;8.25;;;6.47;;
70150;SDS011;57517;43.562;19.540;2023-05-10T13:29:43;9.90;;;6.55;;
70150;SDS011;57517;43.562;19.540;2023-05-10T13:32:09;6.55;;;4.72;;
70150;SDS011;57517;43.562;19.540;2023-05-10T13:34:35;7.65;;;5.03;;
70150;SDS011;57517;43.562;19.540;2023-05-10T13:37:01;5.93;;;4.10;;
70150;SDS011;57517;43.562;19.540;2023-05-10T13:39:26;27.27;;;11.77;;
70150;SDS011;57517;43.562;19.540;2023-05-10T13:41:52;19.83;;;8.13;;
70150;SDS011;57517;43.562;19.540;2023-05-10T13:44:19;20.25;;;7.63;;
70150;SDS011;57517;43.562;19.540;2023-05-10T13:46:45;28.45;;;11.95;;
70150;SDS011;57517;43.562;19.540;2023-05-10T13:49:11;34.83;;;13.13;;
70150;SDS011;57517;43.562;19.540;2023-05-10T13:51:37;8.00;;;4.95;;
70150;SDS011;57517;43.562;19.540;2023-05-10T13:54:03;13.25;;;5.60;;
70150;SDS011;57517;43.562;19.540;2023-05-10T13:56:28;6.38;;;4.13;;
70150;SDS011;57517;43.562;19.540;2023-05-10T13:58:55;9.00;;;4.90;;
70150;SDS011;57517;43.562;19.540;2023-05-10T14:01:22;7.50;;;5.28;;
70150;SDS011;57517;43.562;19.540;2023-05-10T14:03:48;6.75;;;4.07;;
70150;SDS011;57517;43.562;19.540;2023-05-10T14:06:14;7.55;;;4.50;;
70150;SDS011;57517;43.562;19.540;2023-05-10T14:08:39;9.70;;;4.40;;
70150;SDS011;57517;43.562;19.540;2023-05-10T14:11:06;4.95;;;3.60;;
70150;SDS011;57517;43.562;19.540;2023-05-10T14:13:32;5.07;;;3.30;;
70150;SDS011;57517;43.562;19.540;2023-05-10T14:15:58;12.15;;;6.45;;
70150;SDS011;57517;43.562;19.540;2023-05-10T14:18:26;8.13;;;3.97;;
70150;SDS011;57517;43.562;19.540;2023-05-10T14:20:52;11.35;;;6.18;;
70150;SDS011;57517;43.562;19.540;2023-05-10T14:23:18;7.95;;;5.15;;
70150;SDS011;57517;43.562;19.540;2023-05-10T14:25:48;11.90;;;6.40;;
70150;SDS011;57517;43.562;19.540;2023-05-10T14:28:17;16.75;;;8.10;;
70150;SDS011;57517;43.562;19.540;2023-05-10T14:30:43;10.50;;;5.63;;
70150;SDS011;57517;43.562;19.540;2023-05-10T14:33:09;10.57;;;6.38;;
70150;SDS011;57517;43.562;19.540;2023-05-10T14:35:35;7.60;;;5.10;;
70150;SDS011;57517;43.562;19.540;2023-05-10T14:38:02;7.70;;;5.43;;
70150;SDS011;57517;43.562;19.540;2023-05-10T14:40:29;5.53;;;4.10;;
70150;SDS011;57517;43.562;19.540;2023-05-10T14:42:55;7.22;;;4.72;;
70150;SDS011;57517;43.562;19.540;2023-05-10T14:45:22;9.60;;;4.90;;
70150;SDS011;57517;43.562;19.540;2023-05-10T14:47:49;7.80;;;5.10;;
70150;SDS011;57517;43.562;19.540;2023-05-10T14:50:19;47.20;;;8.93;;
70150;SDS011;57517;43.562;19.540;2023-05-10T14:52:45;5.57;;;4.15;;
70150;SDS011;57517;43.562;19.540;2023-05-10T14:55:11;6.05;;;4.25;;
70150;SDS011;57517;43.562;19.540;2023-05-10T14:57:38;6.07;;;3.80;;
70150;SDS011;57517;43.562;19.540;2023-05-10T15:00:04;6.15;;;4.40;;
70150;SDS011;57517;43.562;19.540;2023-05-10T15:02:30;8.93;;;5.13;;
70150;SDS011;57517;43.562;19.540;2023-05-10T15:04:56;13.95;;;8.60;;